createdAt,value
2018-10-11T00:02:00.767Z,14.30
2018-10-11T00:04:28.248Z,14.30
2018-10-11T00:06:55.708Z,14.30
2018-10-11T00:09:23.156Z,14.20
2018-10-11T00:11:50.608Z,14.20
2018-10-11T00:14:18.086Z,14.30
2018-10-11T00:16:45.507Z,14.20
2018-10-11T00:19:13.004Z,14.20
2018-10-11T00:21:40.396Z,14.10
2018-10-11T00:24:07.920Z,14.10
2018-10-11T00:26:35.344Z,14.00
2018-10-11T00:29:02.815Z,14.00
2018-10-11T00:31:30.254Z,14.00
2018-10-11T00:33:57.724Z,14.00
2018-10-11T00:36:25.196Z,13.90
2018-10-11T00:38:52.639Z,13.90
2018-10-11T00:41:20.068Z,13.90
2018-10-11T00:43:47.448Z,13.90
2018-10-11T00:46:14.843Z,13.90
2018-10-11T00:48:42.259Z,13.80
2018-10-11T00:51:09.707Z,13.70
2018-10-11T00:53:37.153Z,13.70
2018-10-11T00:56:04.627Z,13.70
2018-10-11T00:58:32.065Z,13.70
2018-10-11T01:00:59.540Z,13.60
2018-10-11T01:03:26.972Z,13.70
2018-10-11T01:05:54.596Z,13.70
2018-10-11T01:08:21.999Z,13.70
2018-10-11T01:10:49.469Z,13.80
2018-10-11T01:13:16.972Z,13.80
2018-10-11T01:15:44.326Z,13.80
2018-10-11T01:18:11.753Z,13.80
2018-10-11T01:20:39.206Z,13.80
2018-10-11T01:23:06.644Z,13.70
2018-10-11T01:25:34.120Z,13.70
2018-10-11T01:28:01.552Z,13.60
2018-10-11T01:30:29.024Z,13.60
2018-10-11T01:32:57.172Z,13.50
2018-10-11T01:35:25.275Z,13.50
2018-10-11T01:37:52.664Z,13.50
2018-10-11T01:40:20.042Z,13.50
2018-10-11T01:42:52.041Z,13.50
2018-10-11T01:45:19.511Z,13.40
2018-10-11T01:47:47.112Z,13.30
2018-10-11T01:50:14.580Z,13.30
2018-10-11T01:52:42.004Z,13.30
2018-10-11T01:55:09.457Z,13.20
2018-10-11T01:57:36.929Z,13.20
2018-10-11T02:00:04.381Z,13.20
2018-10-11T02:02:31.818Z,13.20
2018-10-11T02:04:59.337Z,13.20
2018-10-11T02:07:26.737Z,13.10
2018-10-11T02:09:54.197Z,13.10
2018-10-11T02:12:21.664Z,13.10
2018-10-11T02:14:49.121Z,13.10
2018-10-11T02:17:16.577Z,13.10
2018-10-11T02:19:44.013Z,13.10
2018-10-11T02:22:11.416Z,13.10
2018-10-11T02:24:39.835Z,13.10
2018-10-11T02:27:07.316Z,13.10
2018-10-11T02:29:34.777Z,13.10
2018-10-11T02:32:02.338Z,13.10
2018-10-11T02:34:29.609Z,13.10
2018-10-11T02:36:57.032Z,13.10
2018-10-11T02:39:24.475Z,13.00
2018-10-11T02:41:51.840Z,13.00
2018-10-11T02:44:19.305Z,13.00
2018-10-11T02:46:46.663Z,13.00
2018-10-11T02:49:14.148Z,13.00
2018-10-11T02:51:41.528Z,13.00
2018-10-11T02:54:08.982Z,13.00
2018-10-11T02:56:36.352Z,13.00
2018-10-11T02:59:09.392Z,13.00
2018-10-11T03:01:36.843Z,13.00
2018-10-11T03:04:04.927Z,13.00
2018-10-11T03:06:35.168Z,13.00
2018-10-11T03:09:02.572Z,12.90
2018-10-11T03:11:30.081Z,12.90
2018-10-11T03:13:58.176Z,12.90
2018-10-11T03:16:25.561Z,12.90
2018-10-11T03:18:52.960Z,12.80
2018-10-11T03:21:20.391Z,12.80
2018-10-11T03:23:47.767Z,12.90
2018-10-11T03:26:15.145Z,12.90
2018-10-11T03:28:42.560Z,12.90
2018-10-11T03:31:10.021Z,12.90
2018-10-11T03:33:37.404Z,12.90
2018-10-11T03:36:04.840Z,12.90
2018-10-11T03:38:32.289Z,12.90
2018-10-11T03:40:59.651Z,12.90
2018-10-11T03:43:27.044Z,12.80
2018-10-11T03:45:54.440Z,12.80
2018-10-11T03:48:22.840Z,12.70
2018-10-11T03:50:50.310Z,12.80
2018-10-11T03:53:17.681Z,12.80
2018-10-11T03:55:45.048Z,12.80
2018-10-11T03:58:12.454Z,12.80
2018-10-11T04:00:39.900Z,12.80
2018-10-11T04:03:07.380Z,12.80
2018-10-11T04:05:34.825Z,12.80
2018-10-11T04:08:02.298Z,12.70
2018-10-11T04:10:29.740Z,12.70
2018-10-11T04:12:57.221Z,12.60
2018-10-11T04:15:24.626Z,12.60
2018-10-11T04:17:52.027Z,12.70
2018-10-11T04:20:19.472Z,12.70
2018-10-11T04:22:46.877Z,12.60
2018-10-11T04:25:14.288Z,12.60
2018-10-11T04:27:41.781Z,12.60
2018-10-11T04:30:09.227Z,12.60
2018-10-11T04:32:36.712Z,12.60
2018-10-11T04:35:04.074Z,12.50
2018-10-11T04:37:31.452Z,12.60
2018-10-11T04:39:58.815Z,12.50
2018-10-11T04:42:26.292Z,12.40
2018-10-11T04:44:53.727Z,12.40
2018-10-11T04:47:21.112Z,12.40
2018-10-11T04:49:49.525Z,12.40
2018-10-11T04:52:16.941Z,12.40
2018-10-11T04:54:44.404Z,12.40
2018-10-11T04:57:11.905Z,12.30
2018-10-11T04:59:39.320Z,12.30
2018-10-11T05:02:06.808Z,12.30
2018-10-11T05:04:34.215Z,12.40
2018-10-11T05:07:01.600Z,12.40
2018-10-11T05:09:29.129Z,12.40
2018-10-11T05:11:56.621Z,12.30
2018-10-11T05:14:24.072Z,12.30
2018-10-11T05:16:51.846Z,12.30
2018-10-11T05:19:19.321Z,12.40
2018-10-11T05:21:46.702Z,12.40
2018-10-11T05:24:14.118Z,12.50
2018-10-11T05:26:41.592Z,12.60
2018-10-11T05:29:09.020Z,12.60
2018-10-11T05:31:36.455Z,12.60
2018-10-11T05:34:03.844Z,12.60
2018-10-11T05:36:31.210Z,12.60
2018-10-11T05:38:58.686Z,12.60
2018-10-11T05:41:26.076Z,12.60
2018-10-11T05:43:53.585Z,12.60
2018-10-11T05:46:22.895Z,12.60
2018-10-11T05:48:50.545Z,12.60
2018-10-11T05:51:18.423Z,12.60
2018-10-11T05:53:45.836Z,12.70
2018-10-11T05:56:13.250Z,12.70
2018-10-11T05:58:40.632Z,12.70
2018-10-11T06:01:08.025Z,12.70
2018-10-11T06:03:35.862Z,12.80
2018-10-11T06:06:04.045Z,12.80
2018-10-11T06:08:31.508Z,12.90
2018-10-11T06:10:58.960Z,13.00
2018-10-11T06:13:26.344Z,13.10
2018-10-11T06:15:53.772Z,13.20
2018-10-11T06:18:21.231Z,13.30
2018-10-11T06:20:48.688Z,13.40
2018-10-11T06:23:16.278Z,13.40
2018-10-11T06:25:43.728Z,13.50
2018-10-11T06:28:11.114Z,13.60
2018-10-11T06:30:38.595Z,13.70
2018-10-11T06:33:05.967Z,13.80
2018-10-11T06:35:33.587Z,13.90
2018-10-11T06:38:01.479Z,14.00
2018-10-11T06:40:29.032Z,14.10
2018-10-11T06:42:56.527Z,14.20
2018-10-11T06:45:24.016Z,14.30
2018-10-11T06:47:52.070Z,14.40
2018-10-11T06:50:19.581Z,14.50
2018-10-11T06:52:46.976Z,14.60
2018-10-11T06:55:14.458Z,14.70
2018-10-11T06:57:41.889Z,14.80
2018-10-11T07:00:09.573Z,14.90
2018-10-11T07:02:37.471Z,15.00
2018-10-11T07:05:06.030Z,15.10
2018-10-11T07:10:17.928Z,15.30
2018-10-11T07:12:45.524Z,15.30
2018-10-11T07:15:13.233Z,15.40
2018-10-11T07:17:40.898Z,15.40
2018-10-11T07:20:08.453Z,15.50
2018-10-11T07:22:35.817Z,15.50
2018-10-11T07:25:03.211Z,15.60
2018-10-11T07:27:30.689Z,15.60
2018-10-11T07:29:58.084Z,15.70
2018-10-11T07:32:25.656Z,15.80
2018-10-11T07:34:53.192Z,15.80
2018-10-11T07:37:20.531Z,15.90
2018-10-11T07:39:47.920Z,16.00
2018-10-11T07:42:15.336Z,16.10
2018-10-11T07:44:42.792Z,16.20
2018-10-11T07:47:10.177Z,16.20
2018-10-11T07:49:37.993Z,16.30
2018-10-11T07:52:05.393Z,16.40
2018-10-11T07:54:33.722Z,16.40
2018-10-11T07:57:01.609Z,16.50
2018-10-11T07:59:29.121Z,16.50
2018-10-11T08:01:56.629Z,16.60
2018-10-11T08:04:24.082Z,16.70
2018-10-11T08:06:52.013Z,16.80
2018-10-11T08:09:19.412Z,16.80
2018-10-11T08:11:46.979Z,16.90
2018-10-11T08:14:14.551Z,17.00
2018-10-11T08:16:42.200Z,17.00
2018-10-11T08:19:11.940Z,17.10
2018-10-11T08:21:39.163Z,17.20
2018-10-11T08:24:08.316Z,17.30
2018-10-11T08:26:35.729Z,17.40
2018-10-11T08:29:03.145Z,17.50
2018-10-11T08:31:30.593Z,17.60
2018-10-11T08:33:58.420Z,17.70
2018-10-11T08:36:25.829Z,17.80
2018-10-11T08:38:53.447Z,17.80
2018-10-11T08:41:20.866Z,17.90
2018-10-11T08:43:48.296Z,18.00
2018-10-11T08:46:15.712Z,18.10
2018-10-11T08:48:43.102Z,18.20
2018-10-11T08:51:10.689Z,18.30
2018-10-11T08:53:38.149Z,18.40
2018-10-11T08:56:05.879Z,18.50
2018-10-11T08:58:33.342Z,18.50
2018-10-11T09:01:00.789Z,18.60
2018-10-11T09:03:28.417Z,18.70
2018-10-11T09:05:55.783Z,18.80
2018-10-11T09:08:23.172Z,18.80
2018-10-11T09:10:50.706Z,18.90
2018-10-11T09:13:18.090Z,19.00
2018-10-11T09:15:45.487Z,19.00
2018-10-11T09:18:13.057Z,19.10
2018-10-11T09:20:40.589Z,19.10
2018-10-11T09:23:08.168Z,19.20
2018-10-11T09:25:35.782Z,19.30
2018-10-11T09:28:03.515Z,19.30
2018-10-11T09:30:31.170Z,19.30
2018-10-11T09:33:13.244Z,19.50
2018-10-11T09:35:40.676Z,19.60
2018-10-11T09:38:08.860Z,19.60
2018-10-11T09:40:36.304Z,19.70
2018-10-11T09:43:03.747Z,19.80
2018-10-11T09:45:31.419Z,19.90
2018-10-11T09:47:58.939Z,20.10
2018-10-11T09:50:26.394Z,20.20
2018-10-11T09:52:53.844Z,20.30
2018-10-11T09:55:21.275Z,20.40
2018-10-11T09:57:49.260Z,20.40
2018-10-11T10:00:22.413Z,20.50
2018-10-11T10:02:50.321Z,20.50
2018-10-11T10:05:17.781Z,20.50
2018-10-11T10:07:45.276Z,20.60
2018-10-11T10:10:12.892Z,20.60
2018-10-11T10:12:40.599Z,20.70
2018-10-11T10:15:08.232Z,20.70
2018-10-11T10:17:36.456Z,20.80
2018-10-11T10:20:04.032Z,20.80
2018-10-11T10:22:31.510Z,20.90
2018-10-11T10:24:58.925Z,20.90
2018-10-11T10:27:26.473Z,21.00
2018-10-11T10:29:53.932Z,21.00
2018-10-11T10:32:21.517Z,21.10
2018-10-11T10:34:48.916Z,21.10
2018-10-11T10:37:16.395Z,21.20
2018-10-11T10:39:43.973Z,21.20
2018-10-11T10:42:11.469Z,21.30
2018-10-11T10:44:38.937Z,21.30
2018-10-11T10:47:06.489Z,21.30
2018-10-11T10:49:36.841Z,21.30
2018-10-11T10:52:04.390Z,21.30
2018-10-11T10:54:33.076Z,21.30
2018-10-11T10:57:01.227Z,21.40
2018-10-11T10:59:29.636Z,21.40
2018-10-11T11:04:34.032Z,21.50
2018-10-11T11:07:01.737Z,21.60
2018-10-11T11:09:29.208Z,21.60
2018-10-11T11:11:56.784Z,21.60
2018-10-11T11:14:24.309Z,21.70
2018-10-11T11:16:51.713Z,21.70
2018-10-11T11:19:19.144Z,21.70
2018-10-11T11:21:46.553Z,21.80
2018-10-11T11:24:14.026Z,21.90
2018-10-11T11:26:42.017Z,21.90
2018-10-11T11:29:09.441Z,21.90
2018-10-11T11:31:36.957Z,21.90
2018-10-11T11:34:04.501Z,22.00
2018-10-11T11:36:31.904Z,22.00
2018-10-11T11:38:59.613Z,22.00
2018-10-11T11:41:27.148Z,22.10
2018-10-11T11:43:54.569Z,22.10
2018-10-11T11:46:21.971Z,22.10
2018-10-11T11:48:49.657Z,22.20
2018-10-11T11:51:17.359Z,22.20
2018-10-11T11:53:44.966Z,22.20
2018-10-11T11:56:13.700Z,22.20
2018-10-11T11:58:41.892Z,22.30
2018-10-11T12:01:10.299Z,22.30
2018-10-11T12:03:38.790Z,22.30
2018-10-11T12:06:06.253Z,22.30
2018-10-11T12:08:34.352Z,22.40
2018-10-11T12:11:02.554Z,22.40
2018-10-11T12:13:30.035Z,22.40
2018-10-11T12:15:57.513Z,22.50
2018-10-11T12:18:24.888Z,22.50
2018-10-11T12:20:52.558Z,22.50
2018-10-11T12:23:20.836Z,22.50
2018-10-11T12:25:48.332Z,22.50
2018-10-11T12:28:15.935Z,22.60
2018-10-11T12:30:43.540Z,22.60
2018-10-11T12:33:11.244Z,22.70
2018-10-11T12:35:38.707Z,22.70
2018-10-11T12:38:06.301Z,22.70
2018-10-11T12:40:34.349Z,22.70
2018-10-11T12:43:02.039Z,22.80
2018-10-11T12:45:29.883Z,22.80
2018-10-11T12:48:01.206Z,22.90
2018-10-11T12:50:28.908Z,22.90
2018-10-11T12:52:56.553Z,22.90
2018-10-11T12:55:24.202Z,22.90
2018-10-11T12:57:51.996Z,22.90
2018-10-11T13:00:19.748Z,22.90
2018-10-11T13:02:47.292Z,22.90
2018-10-11T13:05:15.140Z,22.90
2018-10-11T13:07:42.957Z,22.90
2018-10-11T13:10:10.382Z,22.90
2018-10-11T13:12:37.883Z,22.90
2018-10-11T13:15:05.732Z,22.90
2018-10-11T13:17:37.007Z,22.90
2018-10-11T13:20:00.686Z,22.90
2018-10-11T13:25:16.879Z,22.80
2018-10-11T13:27:44.494Z,22.90
2018-10-11T13:30:11.957Z,22.80
2018-10-11T13:32:39.587Z,22.90
2018-10-11T13:35:08.504Z,22.90
2018-10-11T13:37:36.404Z,23.00
2018-10-11T13:40:04.259Z,23.00
2018-10-11T13:42:32.696Z,23.00
2018-10-11T13:45:01.161Z,23.00
2018-10-11T13:50:09.590Z,23.00
2018-10-11T13:52:38.510Z,22.90
2018-10-11T13:55:11.115Z,23.00
2018-10-11T13:57:34.498Z,23.00
2018-10-11T14:00:02.538Z,23.00
2018-10-11T14:02:30.485Z,23.00
2018-10-11T14:04:59.504Z,23.00
2018-10-11T14:07:27.024Z,23.00
2018-10-11T14:09:54.490Z,23.00
2018-10-11T14:12:22.223Z,23.00
2018-10-11T14:14:49.889Z,23.00
2018-10-11T14:17:17.565Z,23.00
2018-10-11T14:19:45.300Z,23.00
2018-10-11T14:22:13.003Z,23.00
2018-10-11T14:24:42.907Z,23.00
2018-10-11T14:27:10.832Z,23.00
2018-10-11T14:29:40.655Z,23.00
2018-10-11T14:32:08.537Z,23.10
2018-10-11T14:34:36.831Z,23.10
2018-10-11T14:37:04.555Z,23.10
2018-10-11T14:42:10.647Z,23.00
2018-10-11T14:44:38.119Z,23.00
2018-10-11T14:47:05.931Z,23.00
2018-10-11T14:52:13.029Z,22.90
2018-10-11T14:54:41.071Z,22.90
2018-10-11T14:57:08.551Z,23.00
2018-10-11T14:59:36.340Z,23.00
2018-10-11T15:02:04.198Z,23.00
2018-10-11T15:04:32.253Z,23.00
2018-10-11T15:06:59.925Z,23.00
2018-10-11T15:09:27.550Z,22.90
2018-10-11T15:11:55.381Z,22.90
2018-10-11T15:17:05.602Z,22.90
2018-10-11T15:19:34.607Z,22.80
2018-10-11T15:22:03.912Z,22.70
2018-10-11T15:24:31.928Z,22.70
2018-10-11T15:26:59.386Z,22.70
2018-10-11T15:29:26.946Z,22.60
2018-10-11T15:31:54.355Z,22.60
2018-10-11T15:34:21.921Z,22.60
2018-10-11T15:36:49.705Z,22.60
2018-10-11T15:39:17.170Z,22.50
2018-10-11T15:41:44.557Z,22.40
2018-10-11T15:44:12.904Z,22.40
2018-10-11T15:46:42.486Z,22.30
2018-10-11T15:49:10.278Z,22.20
2018-10-11T15:51:38.970Z,22.10
2018-10-11T15:54:06.672Z,22.00
2018-10-11T15:56:34.350Z,21.90
2018-10-11T15:59:01.843Z,21.80
2018-10-11T16:01:29.306Z,21.70
2018-10-11T16:03:56.793Z,21.60
2018-10-11T16:06:24.185Z,21.50
2018-10-11T16:08:52.025Z,21.30
2018-10-11T16:11:19.818Z,21.20
2018-10-11T16:13:47.332Z,21.10
2018-10-11T16:16:14.939Z,21.00
2018-10-11T16:18:42.621Z,20.80
2018-10-11T16:21:11.619Z,20.70
2018-10-11T16:23:39.163Z,20.50
2018-10-11T16:26:06.759Z,20.40
2018-10-11T16:28:34.274Z,20.40
2018-10-11T16:31:01.840Z,20.30
2018-10-11T16:33:29.353Z,20.20
2018-10-11T16:35:56.858Z,20.20
2018-10-11T16:38:24.650Z,20.10
2018-10-11T16:40:52.053Z,20.00
2018-10-11T16:43:21.166Z,19.90
2018-10-11T16:45:48.662Z,19.90
2018-10-11T16:48:16.075Z,19.90
2018-10-11T16:50:43.521Z,19.90
2018-10-11T16:53:11.145Z,19.90
2018-10-11T16:55:38.582Z,20.00
2018-10-11T16:58:06.362Z,20.00
2018-10-11T17:00:33.812Z,20.10
2018-10-11T17:03:01.318Z,20.10
2018-10-11T17:05:28.848Z,20.20
2018-10-11T17:07:56.313Z,20.20
2018-10-11T17:10:23.747Z,20.20
2018-10-11T17:12:51.413Z,20.20
2018-10-11T17:15:18.917Z,20.10
2018-10-11T17:17:46.444Z,20.00
2018-10-11T17:20:14.228Z,19.90
2018-10-11T17:22:41.652Z,19.70
2018-10-11T17:25:09.267Z,19.70
2018-10-11T17:27:36.789Z,19.70
2018-10-11T17:30:04.549Z,19.70
2018-10-11T17:32:31.944Z,19.60
2018-10-11T17:37:37.135Z,19.60
2018-10-11T17:40:05.935Z,19.50
2018-10-11T17:42:33.466Z,19.50
2018-10-11T17:45:01.248Z,19.50
2018-10-11T17:47:29.129Z,19.50
2018-10-11T17:49:56.655Z,19.50
2018-10-11T17:52:24.103Z,19.50
2018-10-11T17:54:52.344Z,19.40
2018-10-11T17:57:20.396Z,19.40
2018-10-11T17:59:49.573Z,19.30
2018-10-11T18:02:19.352Z,19.20
2018-10-11T18:04:47.344Z,19.20
2018-10-11T18:07:15.213Z,19.20
2018-10-11T18:09:43.227Z,19.20
2018-10-11T18:12:10.728Z,19.10
2018-10-11T18:14:38.617Z,19.10
2018-10-11T18:17:06.429Z,19.00
2018-10-11T18:19:34.012Z,19.00
2018-10-11T18:22:01.568Z,19.00
2018-10-11T18:24:29.152Z,18.90
2018-10-11T18:26:56.729Z,18.90
2018-10-11T18:29:24.224Z,18.80
2018-10-11T18:31:51.633Z,18.80
2018-10-11T18:34:19.143Z,18.70
2018-10-11T18:36:46.535Z,18.50
2018-10-11T18:39:15.064Z,18.40
2018-10-11T18:41:42.953Z,18.30
2018-10-11T18:44:11.187Z,18.30
2018-10-11T18:46:38.652Z,18.20
2018-10-11T18:49:06.268Z,18.10
2018-10-11T18:51:33.879Z,18.10
2018-10-11T18:54:02.700Z,17.90
2018-10-11T18:56:30.217Z,17.80
2018-10-11T18:58:58.242Z,17.70
2018-10-11T19:01:25.803Z,17.70
2018-10-11T19:03:53.448Z,17.60
2018-10-11T19:06:20.978Z,17.60
2018-10-11T19:08:48.403Z,17.50
2018-10-11T19:11:15.976Z,17.50
2018-10-11T19:13:43.403Z,17.40
2018-10-11T19:16:11.028Z,17.40
2018-10-11T19:18:38.835Z,17.50
2018-10-11T19:21:06.489Z,17.40
2018-10-11T19:23:34.158Z,17.40
2018-10-11T19:26:01.758Z,17.40
2018-10-11T19:28:29.225Z,17.30
2018-10-11T19:30:56.746Z,17.20
2018-10-11T19:33:25.391Z,17.10
2018-10-11T19:35:52.892Z,17.00
2018-10-11T19:38:20.488Z,16.90
2018-10-11T19:40:47.928Z,16.90
2018-10-11T19:43:15.391Z,16.90
2018-10-11T19:45:42.885Z,16.80
2018-10-11T19:48:10.465Z,16.70
2018-10-11T19:50:37.903Z,16.60
2018-10-11T19:53:05.481Z,16.60
2018-10-11T19:55:33.033Z,16.60
2018-10-11T19:58:00.408Z,16.50
2018-10-11T20:00:27.892Z,16.50
2018-10-11T20:02:55.515Z,16.40
2018-10-11T20:05:23.396Z,16.30
2018-10-11T20:07:50.892Z,16.30
2018-10-11T20:10:18.855Z,16.20
2018-10-11T20:12:46.351Z,16.20
2018-10-11T20:15:13.875Z,16.10
2018-10-11T20:17:41.315Z,16.10
2018-10-11T20:20:08.834Z,16.00
2018-10-11T20:26:07.153Z,16.00
2018-10-11T20:28:34.566Z,16.00
2018-10-11T20:31:02.103Z,16.00
2018-10-11T20:33:29.538Z,16.00
2018-10-11T20:35:57.024Z,15.90
2018-10-11T20:38:24.471Z,15.90
2018-10-11T20:40:52.136Z,15.80
2018-10-11T20:43:19.770Z,15.80
2018-10-11T20:45:47.164Z,15.80
2018-10-11T20:48:14.520Z,15.80
2018-10-11T20:50:42.032Z,15.80
2018-10-11T20:53:09.428Z,15.80
2018-10-11T20:55:36.899Z,15.80
2018-10-11T20:58:04.383Z,15.80
2018-10-11T21:00:31.808Z,15.70
2018-10-11T21:02:59.258Z,15.70
2018-10-11T21:05:26.759Z,15.70
2018-10-11T21:07:54.376Z,15.70
2018-10-11T21:10:21.835Z,15.70
2018-10-11T21:12:49.323Z,15.70
2018-10-11T21:15:16.743Z,15.60
2018-10-11T21:17:44.264Z,15.60
2018-10-11T21:20:11.733Z,15.50
2018-10-11T21:22:39.071Z,15.50
2018-10-11T21:25:06.465Z,15.40
2018-10-11T21:27:33.940Z,15.40
2018-10-11T21:30:01.384Z,15.40
2018-10-11T21:32:28.961Z,15.40
2018-10-11T21:34:56.383Z,15.40
2018-10-11T21:37:23.772Z,15.40
2018-10-11T21:39:51.238Z,15.30
2018-10-11T21:42:18.602Z,15.30
2018-10-11T21:44:46.028Z,15.30
2018-10-11T21:47:13.408Z,15.40
2018-10-11T21:49:40.824Z,15.30
2018-10-11T21:52:08.968Z,15.40
2018-10-11T21:54:36.363Z,15.30
2018-10-11T21:57:03.962Z,15.30
2018-10-11T21:59:31.371Z,15.30
2018-10-11T22:01:59.240Z,15.20
2018-10-11T22:04:26.711Z,15.20
2018-10-11T22:06:54.294Z,15.10
2018-10-11T22:09:21.659Z,15.10
2018-10-11T22:11:49.075Z,15.10
2018-10-11T22:14:17.199Z,15.00
2018-10-11T22:16:44.591Z,15.00
2018-10-11T22:19:11.992Z,15.00
2018-10-11T22:21:39.421Z,15.00
2018-10-11T22:24:07.132Z,15.00
2018-10-11T22:26:34.535Z,15.00
2018-10-11T22:29:02.014Z,15.00
2018-10-11T22:31:29.596Z,15.00
2018-10-11T22:33:57.023Z,14.90
2018-10-11T22:36:24.524Z,14.90
2018-10-11T22:38:51.944Z,14.80
2018-10-11T22:41:19.316Z,14.90
2018-10-11T22:43:46.768Z,14.80
2018-10-11T22:46:14.232Z,14.80
2018-10-11T22:48:43.065Z,14.80
2018-10-11T22:51:10.896Z,14.80
2018-10-11T22:53:38.324Z,14.80
2018-10-11T22:56:05.788Z,14.70
2018-10-11T22:58:33.256Z,14.70
2018-10-11T23:01:00.725Z,14.70
2018-10-11T23:03:28.144Z,14.70
2018-10-11T23:05:55.671Z,14.70
2018-10-11T23:08:23.225Z,14.70
2018-10-11T23:10:50.644Z,14.70
2018-10-11T23:13:17.996Z,14.70
2018-10-11T23:15:45.367Z,14.70
2018-10-11T23:18:12.858Z,14.60
2018-10-11T23:20:40.276Z,14.60
2018-10-11T23:23:07.631Z,14.50
2018-10-11T23:25:35.117Z,14.40
2018-10-11T23:28:02.468Z,14.40
2018-10-11T23:30:29.872Z,14.40
2018-10-11T23:32:57.344Z,14.40
2018-10-11T23:35:24.811Z,14.40
2018-10-11T23:37:52.322Z,14.40
2018-10-11T23:40:19.732Z,14.40
2018-10-11T23:42:47.183Z,14.40
2018-10-11T23:45:14.631Z,14.30
2018-10-11T23:47:42.742Z,14.30
2018-10-11T23:50:10.164Z,14.30
2018-10-11T23:52:37.745Z,14.30
2018-10-11T23:55:06.011Z,14.30
2018-10-11T23:57:33.360Z,14.20
